Time;durP1;ratioP1;P1;durP2;ratioP2;P2;SDS_P1;SDS_P2;PMS_P1;PMS_P2;Temp;Humidity;BMP_temperature;BMP_pressure;BME280_temperature;BME280_humidity;BME280_pressure;Samples;Min_cycle;Max_cycle;Signal;HPM_P1;HPM_P2
2021/08/03 00:01:11;;;;;;;184.75;168.32;;;13.00;99.90;;;;;;6184416;23;20025;-79
2021/08/03 00:03:40;;;;;;;215.75;196.13;;;13.00;99.90;;;;;;6162975;23;20083;-78
2021/08/03 00:06:12;;;;;;;179.68;163.68;;;13.00;99.90;;;;;;6196428;23;20009;-78
2021/08/03 00:08:56;;;;;;;176.57;160.50;;;13.00;99.90;;;;;;6195799;23;20016;-78
2021/08/03 00:11:22;;;;;;;124.90;114.03;;;13.00;99.90;;;;;;6213639;23;20070;-79
2021/08/03 00:13:49;;;;;;;123.53;113.07;;;12.90;99.90;;;;;;6219989;23;20482;-79
2021/08/03 00:16:15;;;;;;;125.72;115.10;;;12.90;99.90;;;;;;6213772;23;20020;-79
2021/08/03 00:18:42;;;;;;;106.63;97.90;;;12.90;99.90;;;;;;6214519;23;20384;-80
2021/08/03 00:21:11;;;;;;;107.90;98.82;;;12.90;99.90;;;;;;6186186;23;20127;-79
2021/08/03 00:23:45;;;;;;;135.80;123.97;;;12.90;99.90;;;;;;6186286;23;20013;-79
2021/08/03 00:26:12;;;;;;;99.95;91.43;;;12.90;99.90;;;;;;6187863;23;20009;-78
2021/08/03 00:28:39;;;;;;;80.10;72.88;;;12.80;99.90;;;;;;6213968;23;20013;-79
2021/08/03 00:31:06;;;;;;;113.68;103.82;;;12.80;99.90;;;;;;6194801;23;20459;-78
2021/08/03 00:33:32;;;;;;;88.40;80.65;;;12.80;99.90;;;;;;6158482;23;20100;-77
2021/08/03 00:35:58;;;;;;;99.13;90.57;;;12.80;99.90;;;;;;6186219;23;20056;-80
2021/08/03 00:38:24;;;;;;;80.05;73.57;;;12.70;99.90;;;;;;6221612;23;20020;-78
2021/08/03 00:40:55;;;;;;;127.47;116.10;;;12.70;99.90;;;;;;6223056;23;20016;-78
2021/08/03 00:43:24;;;;;;;121.18;110.78;;;12.70;99.90;;;;;;6222350;23;20008;-81
2021/08/03 00:45:50;;;;;;;107.28;98.30;;;12.70;99.90;;;;;;6220253;23;20005;-78
2021/08/03 00:48:16;;;;;;;89.57;81.78;;;12.60;99.90;;;;;;6212517;23;20015;-78
2021/08/03 00:50:43;;;;;;;41.00;37.25;;;12.70;99.90;;;;;;6196332;23;20036;-80
2021/08/03 00:53:09;;;;;;;59.70;54.03;;;12.70;99.90;;;;;;6195699;23;20377;-78
2021/08/03 00:55:37;;;;;;;31.52;25.73;;;12.60;99.90;;;;;;6222270;23;20019;-78
2021/08/03 00:58:04;;;;;;;56.28;50.95;;;12.60;99.90;;;;;;6195533;23;20491;-77
2021/08/03 01:00:30;;;;;;;21.05;17.83;;;12.50;99.90;;;;;;6195219;23;20336;-77
2021/08/03 01:02:57;;;;;;;58.00;52.63;;;12.50;99.90;;;;;;6185998;23;20041;-77
2021/08/03 01:05:27;;;;;;;27.45;24.95;;;12.40;99.90;;;;;;6185272;23;20017;-79
2021/08/03 01:08:05;;;;;;;23.10;21.15;;;12.30;99.90;;;;;;6186376;23;20012;-78
2021/08/03 01:10:53;;;;;;;16.90;15.25;;;12.40;99.90;;;;;;6222328;23;20024;-79
2021/08/03 01:13:57;;;;;;;19.58;17.30;;;12.30;99.90;;;;;;6220943;23;20016;-77
2021/08/03 01:16:40;;;;;;;15.38;13.88;;;12.30;99.90;;;;;;6220026;23;20436;-79
2021/08/03 01:19:26;;;;;;;13.20;10.32;;;12.30;99.90;;;;;;6223327;23;20168;-80
2021/08/03 01:21:52;;;;;;;9.02;7.97;;;12.30;99.90;;;;;;6224075;23;20009;-78
2021/08/03 01:24:36;;;;;;;23.70;21.60;;;12.30;99.90;;;;;;6222249;23;20009;-77
2021/08/03 01:27:44;;;;;;;24.42;22.35;;;12.30;99.90;;;;;;6222951;23;20040;-77
2021/08/03 01:30:11;;;;;;;10.90;9.02;;;12.30;99.90;;;;;;6068987;23;20029;-77
2021/08/03 01:32:42;;;;;;;12.88;11.68;;;12.30;99.90;;;;;;6067300;23;20074;-77
2021/08/03 01:35:08;;;;;;;23.10;21.02;;;12.30;99.90;;;;;;6091901;23;20339;-78
2021/08/03 01:37:34;;;;;;;21.35;19.33;;;12.30;99.90;;;;;;6101056;23;20018;-77
2021/08/03 01:40:07;;;;;;;14.52;13.13;;;12.30;99.90;;;;;;6099902;23;20022;-77
2021/08/03 01:42:38;;;;;;;33.78;30.58;;;12.30;99.90;;;;;;6091745;23;20018;-78
2021/08/03 01:45:06;;;;;;;21.35;17.80;;;12.30;99.90;;;;;;6044454;23;20469;-78
2021/08/03 01:47:32;;;;;;;12.38;10.90;;;12.20;99.90;;;;;;6069602;23;20025;-78
2021/08/03 01:49:59;;;;;;;21.33;16.70;;;12.20;99.90;;;;;;6043318;23;20018;-78
2021/08/03 01:52:30;;;;;;;13.45;12.18;;;12.20;99.90;;;;;;6092678;23;20106;-78
2021/08/03 01:54:57;;;;;;;9.35;8.25;;;12.20;99.90;;;;;;6069281;23;20098;-77
2021/08/03 01:57:24;;;;;;;8.95;8.18;;;12.10;99.90;;;;;;6102174;23;20026;-79
2021/08/03 01:59:52;;;;;;;14.43;13.07;;;12.10;99.90;;;;;;6044254;23;20065;-79
2021/08/03 02:02:21;;;;;;;12.38;11.27;;;12.10;99.90;;;;;;6094837;23;20105;-79
2021/08/03 02:04:47;;;;;;;25.65;23.08;;;12.00;99.90;;;;;;6044069;23;20016;-78
2021/08/03 02:07:20;;;;;;;14.00;12.35;;;12.10;99.90;;;;;;6155644;23;20019;-78
2021/08/03 02:09:47;;;;;;;12.65;11.23;;;12.00;99.90;;;;;;6185467;23;20127;-78
2021/08/03 02:12:13;;;;;;;12.93;11.75;;;12.00;99.90;;;;;;6223475;23;20051;-78
2021/08/03 02:14:45;;;;;;;11.82;10.60;;;11.90;99.90;;;;;;6185697;23;20104;-79
2021/08/03 02:17:18;;;;;;;10.00;9.18;;;11.90;99.90;;;;;;6186334;23;20436;-79
2021/08/03 02:19:44;;;;;;;8.40;7.70;;;11.90;99.90;;;;;;6212980;23;20028;-78
2021/08/03 02:22:11;;;;;;;9.73;7.80;;;11.90;99.90;;;;;;6214137;23;20117;-79
2021/08/03 02:24:37;;;;;;;16.23;14.55;;;11.80;99.90;;;;;;6195456;23;20017;-79
2021/08/03 02:27:04;;;;;;;13.70;12.43;;;11.80;99.90;;;;;;6223946;23;20020;-78
2021/08/03 02:29:30;;;;;;;16.05;14.60;;;11.80;99.90;;;;;;6187849;23;20130;-78
2021/08/03 02:32:04;;;;;;;9.85;8.27;;;11.70;99.90;;;;;;6194979;23;20013;-78
2021/08/03 02:35:01;;;;;;;11.00;10.07;;;11.70;99.90;;;;;;6188646;23;20017;-77
2021/08/03 02:37:34;;;;;;;7.15;6.45;;;11.70;99.90;;;;;;6191638;23;20349;-78
2021/08/03 02:40:01;;;;;;;11.30;8.75;;;11.60;99.90;;;;;;6223996;23;20676;-78
2021/08/03 02:42:29;;;;;;;16.85;15.15;;;11.50;99.90;;;;;;6186662;23;20019;-78
2021/08/03 02:45:00;;;;;;;7.40;6.80;;;11.50;99.90;;;;;;6186613;23;20016;-79
2021/08/03 02:47:30;;;;;;;10.65;9.60;;;11.50;99.90;;;;;;6186239;23;20095;-79
2021/08/03 02:50:06;;;;;;;14.07;12.93;;;11.50;99.90;;;;;;6196203;23;20016;-78
2021/08/03 02:52:36;;;;;;;12.68;11.63;;;11.40;99.90;;;;;;6186106;23;20347;-79
2021/08/03 02:55:11;;;;;;;13.40;12.18;;;11.50;99.90;;;;;;6212052;23;20009;-78
2021/08/03 02:57:39;;;;;;;12.25;11.32;;;11.40;99.90;;;;;;6222901;23;20016;-78
2021/08/03 03:00:06;;;;;;;8.73;8.07;;;11.40;99.90;;;;;;6222780;23;20017;-78
2021/08/03 03:02:37;;;;;;;12.23;11.25;;;11.40;99.90;;;;;;6186003;23;20083;-79
2021/08/03 03:05:13;;;;;;;12.40;9.75;;;11.40;99.90;;;;;;6196476;23;20043;-78
2021/08/03 03:07:48;;;;;;;9.65;8.05;;;11.40;99.90;;;;;;6186057;23;20112;-79
2021/08/03 03:10:20;;;;;;;9.65;8.85;;;11.40;99.90;;;;;;6185455;23;20020;-78
2021/08/03 03:12:52;;;;;;;11.98;11.13;;;11.40;99.90;;;;;;6185347;23;20027;-79
2021/08/03 03:15:18;;;;;;;9.38;8.65;;;11.50;99.90;;;;;;6212525;23;20036;-78
2021/08/03 03:17:45;;;;;;;10.00;8.82;;;11.50;99.90;;;;;;6186219;23;20150;-78
2021/08/03 03:20:12;;;;;;;11.90;10.82;;;11.50;99.90;;;;;;6186713;23;20020;-79
2021/08/03 03:22:43;;;;;;;10.77;9.55;;;11.50;99.90;;;;;;6195611;23;20008;-78
2021/08/03 03:25:16;;;;;;;10.77;9.77;;;11.40;99.90;;;;;;6185898;23;20310;-78
2021/08/03 03:27:43;;;;;;;11.90;10.35;;;11.40;99.90;;;;;;6186015;23;20005;-78
2021/08/03 03:30:13;;;;;;;12.57;11.40;;;11.40;99.90;;;;;;6196110;23;20027;-78
2021/08/03 03:32:40;;;;;;;10.50;9.63;;;11.40;99.90;;;;;;6214591;23;20040;-78
2021/08/03 03:35:07;;;;;;;16.55;8.00;;;11.40;99.90;;;;;;6185607;23;20344;-78
2021/08/03 03:37:34;;;;;;;9.00;6.93;;;11.40;99.90;;;;;;6224465;23;20436;-78
2021/08/03 03:40:01;;;;;;;8.52;7.40;;;11.40;99.90;;;;;;6187820;23;20501;-78
2021/08/03 03:42:33;;;;;;;9.35;7.50;;;11.40;99.90;;;;;;6214178;23;20016;-78
2021/08/03 03:45:00;;;;;;;8.07;7.38;;;11.40;99.90;;;;;;6222156;23;20361;-77
2021/08/03 03:47:31;;;;;;;13.35;10.75;;;11.30;99.90;;;;;;6216739;23;20088;-78
2021/08/03 03:50:19;;;;;;;9.73;8.65;;;11.30;99.90;;;;;;6224369;23;20078;-78
2021/08/03 03:52:53;;;;;;;9.18;8.35;;;11.40;99.90;;;;;;6223652;23;20436;-78
2021/08/03 03:55:21;;;;;;;8.55;7.82;;;11.40;99.90;;;;;;6187438;23;20337;-79
2021/08/03 03:57:48;;;;;;;12.18;11.20;;;11.40;99.90;;;;;;6187201;23;20435;-78
2021/08/03 04:00:15;;;;;;;11.75;10.75;;;11.50;99.90;;;;;;6197888;23;20028;-78
2021/08/03 04:02:43;;;;;;;11.98;11.07;;;11.50;99.90;;;;;;6216438;23;20096;-79
2021/08/03 04:05:14;;;;;;;14.10;12.85;;;11.60;99.90;;;;;;6188153;23;20008;-78
2021/08/03 04:07:41;;;;;;;12.70;11.70;;;11.50;99.90;;;;;;6215848;23;20301;-78
2021/08/03 04:10:10;;;;;;;13.18;12.07;;;11.60;99.90;;;;;;6197451;23;20088;-78
2021/08/03 04:12:36;;;;;;;15.45;14.25;;;11.60;99.90;;;;;;6214352;23;20074;-78
2021/08/03 04:15:03;;;;;;;16.75;15.40;;;11.70;99.90;;;;;;6217235;23;20046;-79
2021/08/03 04:17:29;;;;;;;17.23;15.60;;;11.80;99.90;;;;;;6214521;23;20016;-78
2021/08/03 04:19:55;;;;;;;17.17;15.68;;;11.90;99.90;;;;;;6187590;23;20025;-78
2021/08/03 04:22:21;;;;;;;15.02;13.73;;;12.00;99.90;;;;;;6187029;23;20070;-78
2021/08/03 04:24:47;;;;;;;16.42;15.13;;;12.00;99.90;;;;;;6213383;23;20012;-78
2021/08/03 04:27:12;;;;;;;17.05;15.23;;;12.10;99.90;;;;;;6214690;23;20016;-78
2021/08/03 04:29:38;;;;;;;15.23;13.75;;;12.10;99.90;;;;;;6224140;23;20017;-79
2021/08/03 04:32:04;;;;;;;17.90;15.95;;;12.20;99.90;;;;;;6218841;23;20281;-78
2021/08/03 04:34:31;;;;;;;17.60;15.90;;;12.30;99.90;;;;;;6224294;23;20443;-77
2021/08/03 04:36:58;;;;;;;17.73;16.20;;;12.40;99.90;;;;;;6185245;23;20421;-77
2021/08/03 04:39:24;;;;;;;20.25;18.55;;;12.50;99.90;;;;;;6195238;23;20020;-77
2021/08/03 04:41:50;;;;;;;19.23;17.65;;;12.50;99.90;;;;;;6213101;23;20032;-79
2021/08/03 04:44:17;;;;;;;18.65;16.77;;;12.60;99.90;;;;;;6195329;23;20009;-79
2021/08/03 04:46:42;;;;;;;19.50;17.85;;;12.60;99.90;;;;;;6213206;23;20015;-78
2021/08/03 04:49:08;;;;;;;18.23;16.77;;;12.70;99.90;;;;;;6213998;23;20013;-79
2021/08/03 04:51:35;;;;;;;19.45;16.85;;;12.70;99.90;;;;;;6198207;23;20028;-77
2021/08/03 04:54:01;;;;;;;22.20;19.52;;;12.80;99.90;;;;;;6197192;23;20013;-78
2021/08/03 04:56:26;;;;;;;14.90;13.43;;;12.80;99.90;;;;;;6223480;23;20009;-78
2021/08/03 04:58:52;;;;;;;15.23;13.00;;;12.80;99.90;;;;;;6186631;23;20016;-78
2021/08/03 05:01:36;;;;;;;24.48;22.40;;;12.80;99.90;;;;;;6223335;23;20027;-78
2021/08/03 05:04:03;;;;;;;22.83;21.02;;;12.90;99.90;;;;;;6213335;23;20024;-78
2021/08/03 05:06:29;;;;;;;17.33;13.65;;;12.90;99.90;;;;;;6194254;23;20021;-79
2021/08/03 05:08:54;;;;;;;26.63;24.58;;;13.00;99.90;;;;;;6185255;23;20075;-79
2021/08/03 05:11:20;;;;;;;28.42;26.05;;;13.10;99.90;;;;;;6187138;23;20424;-77
2021/08/03 05:13:46;;;;;;;26.38;24.20;;;13.10;99.90;;;;;;6185625;23;20095;-77
2021/08/03 05:16:12;;;;;;;40.22;36.75;;;13.20;99.90;;;;;;6222091;23;20463;-80
2021/08/03 05:18:38;;;;;;;24.45;22.25;;;13.30;99.90;;;;;;6196773;23;20420;-80
2021/08/03 05:21:05;;;;;;;22.85;20.98;;;13.40;99.90;;;;;;6186235;23;20012;-79
2021/08/03 05:23:32;;;;;;;23.52;21.45;;;13.50;99.90;;;;;;6221589;23;20023;-81
2021/08/03 05:25:58;;;;;;;24.95;22.55;;;13.50;99.90;;;;;;6222096;23;20020;-78
2021/08/03 05:28:29;;;;;;;24.05;22.00;;;13.50;99.90;;;;;;6222469;23;20094;-81
2021/08/03 05:30:55;;;;;;;26.60;24.42;;;13.60;99.90;;;;;;6213031;23;20015;-78
2021/08/03 05:33:20;;;;;;;24.00;21.90;;;13.70;99.90;;;;;;6212375;23;20008;-78
2021/08/03 05:35:46;;;;;;;26.63;24.10;;;13.80;99.90;;;;;;6222733;23;20043;-78
2021/08/03 05:38:12;;;;;;;44.90;41.15;;;14.00;99.90;;;;;;6196054;23;20080;-79
2021/08/03 05:40:38;;;;;;;41.25;37.80;;;14.10;99.90;;;;;;6196319;23;20039;-78
2021/08/03 05:43:03;;;;;;;36.63;33.53;;;14.30;99.90;;;;;;6222324;23;20016;-79
2021/08/03 05:45:29;;;;;;;34.70;31.75;;;14.70;99.90;;;;;;6185981;23;20034;-79
2021/08/03 05:47:55;;;;;;;32.70;30.08;;;14.80;99.90;;;;;;6213903;23;20337;-79
2021/08/03 05:50:21;;;;;;;32.60;29.95;;;14.80;99.90;;;;;;6195637;23;20032;-77
2021/08/03 05:52:47;;;;;;;47.20;42.85;;;14.90;99.90;;;;;;6221644;23;20013;-78
2021/08/03 05:55:13;;;;;;;38.78;35.47;;;14.90;99.90;;;;;;6184482;23;20048;-80
2021/08/03 05:57:39;;;;;;;29.90;27.52;;;15.00;99.90;;;;;;6212888;23;20016;-80
2021/08/03 06:00:06;;;;;;;29.95;27.50;;;14.90;99.90;;;;;;6195513;23;20070;-80
2021/08/03 06:02:37;;;;;;;33.75;30.92;;;15.00;99.90;;;;;;6197162;23;20004;-80
2021/08/03 06:05:04;;;;;;;32.20;29.58;;;15.10;99.90;;;;;;6222197;23;20016;-80
2021/08/03 06:07:38;;;;;;;33.80;30.80;;;15.10;99.90;;;;;;6160550;23;20707;-79
2021/08/03 06:10:06;;;;;;;142.00;109.70;;;15.10;99.90;;;;;;6183300;23;20064;-79
2021/08/03 06:12:34;;;;;;;26.48;24.48;;;15.20;99.90;;;;;;6195039;23;20339;-85
2021/08/03 06:15:02;;;;;;;21.33;19.42;;;15.40;99.90;;;;;;6215548;23;20478;-81
2021/08/03 06:17:37;;;;;;;59.58;53.55;;;15.70;99.90;;;;;;6189609;23;20017;-82
2021/08/03 06:20:05;;;;;;;47.83;43.25;;;16.00;99.90;;;;;;6186969;23;20017;-82
2021/08/03 06:22:38;;;;;;;51.60;45.53;;;16.40;99.90;;;;;;6223484;23;20101;-81
2021/08/03 06:25:07;;;;;;;47.22;42.53;;;16.60;99.90;;;;;;6212823;23;20013;-82
2021/08/03 06:27:34;;;;;;;27.52;25.25;;;16.50;99.90;;;;;;6186112;23;20023;-80
2021/08/03 06:30:06;;;;;;;53.90;49.13;;;16.60;99.90;;;;;;6196888;23;20016;-81
2021/08/03 06:32:32;;;;;;;38.13;34.58;;;16.60;99.90;;;;;;6186745;23;20021;-83
2021/08/03 06:34:57;;;;;;;54.15;48.60;;;16.50;99.90;;;;;;6223272;23;20019;-82
2021/08/03 06:37:24;;;;;;;36.88;33.78;;;16.50;99.90;;;;;;6213113;23;20013;-81
2021/08/03 06:39:50;;;;;;;58.90;53.38;;;16.40;99.90;;;;;;6212302;23;20154;-82
2021/08/03 06:42:43;;;;;;;34.55;31.80;;;16.60;99.90;;;;;;6213076;23;20061;-83
2021/08/03 06:45:15;;;;;;;34.38;31.52;;;16.50;99.90;;;;;;6223151;23;20008;-82
2021/08/03 06:48:07;;;;;;;61.97;55.75;;;16.60;99.90;;;;;;6212460;23;20056;-79
2021/08/03 06:50:39;;;;;;;78.85;67.03;;;16.80;99.90;;;;;;6222360;23;20340;-80
2021/08/03 06:53:09;;;;;;;97.07;87.18;;;16.90;99.90;;;;;;6211108;23;20020;-80
2021/08/03 06:55:41;;;;;;;80.20;71.78;;;17.00;99.90;;;;;;6223059;23;20004;-80
2021/08/03 06:58:12;;;;;;;39.28;35.65;;;16.80;99.90;;;;;;6195971;23;20263;-79
2021/08/03 07:00:41;;;;;;;67.38;60.28;;;17.10;99.90;;;;;;6223285;23;20416;-80
2021/08/03 07:03:10;;;;;;;82.40;74.00;;;17.20;99.90;;;;;;6186132;23;20131;-81
2021/08/03 07:05:53;;;;;;;37.58;34.33;;;17.30;99.90;;;;;;6223565;23;20105;-82
2021/08/03 07:08:20;;;;;;;46.40;42.17;;;17.20;99.90;;;;;;6222078;23;20075;-80
2021/08/03 07:10:49;;;;;;;108.57;90.78;;;17.30;99.90;;;;;;6222592;23;20020;-78
2021/08/03 07:13:17;;;;;;;65.53;58.50;;;17.30;99.90;;;;;;6212225;23;20083;-80
2021/08/03 07:15:45;;;;;;;51.35;46.50;;;17.20;99.90;;;;;;6214425;23;20428;-78
2021/08/03 07:18:12;;;;;;;37.03;33.67;;;17.10;99.90;;;;;;6214980;23;20447;-82
2021/08/03 07:20:42;;;;;;;59.22;53.75;;;16.80;99.90;;;;;;6171456;23;20016;-80
2021/08/03 07:23:10;;;;;;;33.13;29.83;;;16.80;99.90;;;;;;6197005;23;20004;-80
2021/08/03 07:25:36;;;;;;;46.35;40.83;;;16.60;99.90;;;;;;6196616;23;20016;-80
2021/08/03 07:28:02;;;;;;;51.22;46.63;;;16.70;99.90;;;;;;6223555;23;20087;-80
2021/08/03 07:30:28;;;;;;;50.88;45.95;;;16.80;99.90;;;;;;6222756;23;20013;-83
2021/08/03 07:32:54;;;;;;;67.35;58.65;;;16.80;99.90;;;;;;6190099;23;20008;-77
2021/08/03 07:35:20;;;;;;;67.20;58.50;;;16.70;99.90;;;;;;6212435;23;20111;-77
2021/08/03 07:37:46;;;;;;;85.93;70.50;;;16.70;99.90;;;;;;6221887;23;20009;-78
2021/08/03 07:40:12;;;;;;;54.42;49.22;;;16.90;99.90;;;;;;6221738;23;20028;-81
2021/08/03 07:42:38;;;;;;;42.83;38.75;;;17.00;99.90;;;;;;6222337;23;20432;-80
2021/08/03 07:45:05;;;;;;;74.53;66.93;;;17.10;99.90;;;;;;6222473;23;20069;-79
2021/08/03 07:47:32;;;;;;;88.45;77.70;;;17.00;99.90;;;;;;6185284;23;20611;-77
2021/08/03 07:49:58;;;;;;;64.00;53.10;;;17.00;99.90;;;;;;6222062;23;20096;-79
2021/08/03 07:52:25;;;;;;;83.97;75.22;;;16.90;99.90;;;;;;6185971;23;20066;-79
2021/08/03 07:54:50;;;;;;;44.72;40.33;;;17.30;99.90;;;;;;6184494;23;20040;-77
2021/08/03 07:57:16;;;;;;;70.95;63.78;;;17.60;99.90;;;;;;6222702;23;20013;-79
2021/08/03 07:59:43;;;;;;;73.63;54.67;;;17.50;99.90;;;;;;6222283;23;20023;-77
2021/08/03 08:02:08;;;;;;;76.57;67.60;;;17.30;99.90;;;;;;6211915;23;20017;-79
2021/08/03 08:04:34;;;;;;;138.38;109.53;;;17.40;99.90;;;;;;6185804;23;20380;-80
2021/08/03 08:07:00;;;;;;;75.88;64.90;;;17.40;99.90;;;;;;6217783;23;20115;-80
2021/08/03 08:09:26;;;;;;;134.43;94.75;;;17.80;99.90;;;;;;6220470;23;20019;-79
2021/08/03 08:11:52;;;;;;;133.20;91.28;;;18.10;99.90;;;;;;6221958;23;20522;-79
2021/08/03 08:14:18;;;;;;;95.90;78.20;;;18.20;99.90;;;;;;6182834;23;20426;-79
2021/08/03 08:16:44;;;;;;;122.70;96.53;;;18.40;99.90;;;;;;6211860;23;20012;-79
2021/08/03 08:19:09;;;;;;;111.40;84.00;;;18.30;99.90;;;;;;6185741;23;20115;-77
2021/08/03 08:21:37;;;;;;;146.65;104.70;;;18.30;99.90;;;;;;6222047;23;20020;-84
2021/08/03 08:24:04;;;;;;;162.77;120.63;;;18.00;99.90;;;;;;6223017;23;20016;-84
2021/08/03 08:26:31;;;;;;;173.13;135.68;;;17.90;99.90;;;;;;6224478;23;20324;-84
2021/08/03 08:28:57;;;;;;;117.00;80.03;;;18.00;99.90;;;;;;6224088;23;20309;-83
2021/08/03 08:31:23;;;;;;;81.05;67.90;;;18.20;99.90;;;;;;6224470;23;20468;-83
2021/08/03 08:33:48;;;;;;;134.68;100.20;;;18.20;99.90;;;;;;6186449;23;20040;-84
2021/08/03 08:36:14;;;;;;;152.35;101.75;;;18.10;99.90;;;;;;6224031;23;20082;-83
2021/08/03 08:38:40;;;;;;;111.55;88.45;;;18.00;99.90;;;;;;6223115;23;20020;-83
2021/08/03 08:41:07;;;;;;;101.32;81.03;;;18.00;99.90;;;;;;6224261;23;20015;-83
2021/08/03 08:43:33;;;;;;;253.25;154.85;;;17.90;99.90;;;;;;6224261;23;20013;-82
2021/08/03 08:45:58;;;;;;;90.50;58.22;;;17.80;99.90;;;;;;6223702;23;20012;-82
2021/08/03 08:48:24;;;;;;;90.63;80.78;;;18.00;99.90;;;;;;6215094;23;20095;-83
2021/08/03 08:50:54;;;;;;;137.75;75.30;;;18.10;99.90;;;;;;6187306;23;20051;-82
2021/08/03 08:53:24;;;;;;;172.20;98.75;;;18.20;99.90;;;;;;6161114;23;20040;-82
2021/08/03 08:55:50;;;;;;;82.13;55.70;;;18.30;99.90;;;;;;6186849;23;20430;-85
2021/08/03 08:58:16;;;;;;;133.57;99.43;;;18.30;99.90;;;;;;6213120;23;20031;-82
2021/08/03 09:00:42;;;;;;;123.13;94.43;;;18.20;99.90;;;;;;6223211;23;20412;-85
2021/08/03 09:03:08;;;;;;;165.20;95.72;;;18.30;99.90;;;;;;6215477;23;20013;-85
2021/08/03 09:06:01;;;;;;;122.07;98.80;;;18.70;99.90;;;;;;6188018;23;20016;-85
2021/08/03 09:08:44;;;;;;;129.90;79.18;;;19.00;99.90;;;;;;6186297;23;20464;-85
2021/08/03 09:11:16;;;;;;;128.75;67.53;;;19.30;99.90;;;;;;6186974;23;20021;-84
2021/08/03 09:14:01;;;;;;;182.10;113.25;;;19.70;99.90;;;;;;6223336;23;20008;-84
2021/08/03 09:16:55;;;;;;;179.23;122.68;;;19.50;99.90;;;;;;6162128;23;20025;-85
2021/08/03 09:19:41;;;;;;;163.68;118.82;;;19.60;99.90;;;;;;6187272;23;20020;-81
2021/08/03 09:22:19;;;;;;;155.65;90.72;;;19.40;99.90;;;;;;6187168;23;20438;-78
2021/08/03 09:25:08;;;;;;;189.75;126.82;;;19.40;99.90;;;;;;6160985;23;20455;-78
2021/08/03 09:27:37;;;;;;;160.38;106.00;;;19.00;99.90;;;;;;6162444;23;20036;-80
2021/08/03 09:30:08;;;;;;;159.13;96.82;;;18.60;99.90;;;;;;6223540;23;20459;-80
2021/08/03 09:32:36;;;;;;;127.78;88.80;;;18.60;99.90;;;;;;6213439;23;20336;-80
2021/08/03 09:35:18;;;;;;;177.23;123.93;;;18.40;99.90;;;;;;6223626;23;20382;-79
2021/08/03 09:37:45;;;;;;;239.95;165.32;;;18.30;99.90;;;;;;6213609;23;20008;-80
2021/08/03 09:40:17;;;;;;;190.23;102.88;;;18.20;99.90;;;;;;6187164;23;20028;-80
2021/08/03 09:42:43;;;;;;;178.02;132.15;;;18.20;99.90;;;;;;6187652;23;20043;-79
2021/08/03 09:45:09;;;;;;;205.77;163.57;;;18.40;99.90;;;;;;6214030;23;20035;-79
2021/08/03 09:47:37;;;;;;;119.93;64.22;;;18.30;99.90;;;;;;6186634;23;20008;-78
2021/08/03 09:50:09;;;;;;;187.68;127.15;;;18.30;99.90;;;;;;6187672;23;20012;-78
2021/08/03 09:52:39;;;;;;;238.60;168.18;;;18.30;99.90;;;;;;6186863;23;20079;-79
2021/08/03 09:55:15;;;;;;;174.25;104.78;;;18.40;99.90;;;;;;6186718;23;20008;-79
2021/08/03 09:57:42;;;;;;;133.75;99.32;;;18.50;99.90;;;;;;6213568;23;20009;-79
2021/08/03 10:00:37;;;;;;;200.50;146.18;;;18.50;99.90;;;;;;6223953;23;20028;-79
2021/08/03 10:03:11;;;;;;;104.72;78.90;;;18.40;99.90;;;;;;6181608;23;20134;-81
2021/08/03 10:05:37;;;;;;;205.65;118.53;;;18.30;99.90;;;;;;6181380;23;20024;-80
2021/08/03 10:08:03;;;;;;;144.63;108.80;;;18.40;99.90;;;;;;6155500;23;20013;-81
2021/08/03 10:10:29;;;;;;;240.95;180.88;;;18.50;99.90;;;;;;6166133;23;20025;-79
2021/08/03 10:12:55;;;;;;;146.40;108.10;;;18.50;99.90;;;;;;6178709;23;20017;-80
2021/08/03 10:15:21;;;;;;;132.00;88.13;;;18.60;99.90;;;;;;6156292;23;20025;-79
2021/08/03 10:17:47;;;;;;;155.60;106.53;;;18.70;99.90;;;;;;6155675;23;20024;-82
2021/08/03 10:20:14;;;;;;;146.98;113.53;;;18.70;99.90;;;;;;6156125;23;20088;-79
2021/08/03 10:23:03;;;;;;;62.80;42.50;;;18.80;99.90;;;;;;6188557;23;20147;-79
2021/08/03 10:25:38;;;;;;;139.98;107.65;;;18.90;99.90;;;;;;6155755;23;20017;-79
2021/08/03 10:28:30;;;;;;;212.50;161.30;;;19.00;99.90;;;;;;6155698;23;20036;-81
2021/08/03 10:30:56;;;;;;;88.60;59.42;;;19.20;99.90;;;;;;6190732;23;20440;-79
2021/08/03 10:33:56;;;;;;;153.20;94.60;;;19.20;99.90;;;;;;6163128;23;20579;-80
2021/08/03 10:36:37;;;;;;;113.15;73.68;;;19.40;99.90;;;;;;6223579;23;20013;-78
2021/08/03 10:39:12;;;;;;;101.70;62.55;;;19.70;99.90;;;;;;6185946;23;20016;-82
2021/08/03 10:42:08;;;;;;;109.63;71.20;;;19.90;99.90;;;;;;6187582;23;20017;-80
2021/08/03 10:44:45;;;;;;;163.50;112.97;;;19.90;99.90;;;;;;6067670;23;20018;-82
2021/08/03 10:47:43;;;;;;;207.57;136.80;;;19.90;99.90;;;;;;6100320;23;20018;-81
2021/08/03 10:50:25;;;;;;;170.85;96.15;;;19.80;99.90;;;;;;6011777;23;20278;-81
2021/08/03 10:52:54;;;;;;;131.05;94.18;;;19.80;99.90;;;;;;6041820;23;20027;-80
2021/08/03 10:55:41;;;;;;;176.02;114.32;;;19.90;99.90;;;;;;6009577;23;20023;-82
2021/08/03 10:58:13;;;;;;;177.18;116.30;;;19.90;99.90;;;;;;6010809;23;20125;-78
2021/08/03 11:00:57;;;;;;;155.85;94.65;;;19.90;99.90;;;;;;6035965;23;20403;-80
2021/08/03 11:03:35;;;;;;;205.65;152.85;;;20.10;99.90;;;;;;6037255;23;20352;-79
2021/08/03 11:06:06;;;;;;;147.95;84.72;;;20.20;99.90;;;;;;5986266;23;20012;-82
2021/08/03 11:08:38;;;;;;;193.68;122.05;;;20.60;99.90;;;;;;6036781;23;20420;-80
2021/08/03 11:11:17;;;;;;;211.15;136.23;;;21.00;99.90;;;;;;6044522;23;20023;-79
2021/08/03 11:13:50;;;;;;;212.88;133.30;;;21.20;99.90;;;;;;6035312;23;20027;-80
2021/08/03 11:16:19;;;;;;;237.90;145.13;;;21.40;99.90;;;;;;6033699;23;20024;-79
2021/08/03 11:18:48;;;;;;;184.73;110.93;;;21.60;99.90;;;;;;6040946;23;20451;-81
2021/08/03 11:21:17;;;;;;;233.27;140.15;;;22.00;99.90;;;;;;6062857;23;20017;-81
2021/08/03 11:23:57;;;;;;;163.85;99.82;;;22.00;99.60;;;;;;6120012;23;20025;-80
2021/08/03 11:26:43;;;;;;;89.85;61.10;;;22.20;99.90;;;;;;6164535;23;20083;-82
2021/08/03 11:29:12;;;;;;;184.30;108.63;;;22.40;99.90;;;;;;6213167;23;20008;-81
2021/08/03 11:31:53;;;;;;;315.13;202.88;;;22.70;99.90;;;;;;6223287;23;20020;-81
2021/08/03 11:34:28;;;;;;;176.27;103.22;;;22.40;97.90;;;;;;6185872;23;20028;-79
2021/08/03 11:37:01;;;;;;;178.68;100.65;;;22.50;97.60;;;;;;6211559;23;20008;-80
2021/08/03 11:39:43;;;;;;;;;;;;;;;;;;;;;
2021/08/03 11:42:12;;;;;;;176.02;99.93;;;22.60;97.90;;;;;;6211269;23;20017;-79
2021/08/03 11:44:39;;;;;;;198.07;107.90;;;22.30;97.50;;;;;;6194737;23;20091;-81
2021/08/03 11:47:05;;;;;;;187.38;114.35;;;22.50;97.90;;;;;;6221751;23;20012;-79
2021/08/03 11:49:34;;;;;;;227.90;125.43;;;22.40;97.60;;;;;;6183510;23;20305;-80
2021/08/03 11:52:21;;;;;;;177.55;101.22;;;22.50;98.00;;;;;;6222439;23;20044;-79
2021/08/03 11:54:55;;;;;;;218.00;139.95;;;22.70;97.70;;;;;;6220398;23;20100;-78
2021/08/03 11:57:29;;;;;;;144.00;93.18;;;22.60;97.50;;;;;;6222426;23;20013;-79
2021/08/03 12:00:21;;;;;;;190.25;118.70;;;22.20;96.90;;;;;;6223989;23;20016;-79
2021/08/03 12:02:49;;;;;;;177.63;108.80;;;22.00;97.10;;;;;;6220574;23;20013;-79
2021/08/03 12:05:16;;;;;;;171.57;114.50;;;22.00;97.90;;;;;;6161150;23;20383;-79
2021/08/03 12:07:51;;;;;;;128.50;83.18;;;22.00;98.70;;;;;;6214970;23;20647;-81
2021/08/03 12:10:21;;;;;;;169.43;106.18;;;22.20;98.30;;;;;;6223200;23;20054;-80
2021/08/03 12:12:48;;;;;;;155.73;97.60;;;22.00;98.00;;;;;;6161360;23;20012;-80
2021/08/03 12:15:16;;;;;;;136.05;92.03;;;22.20;97.80;;;;;;6186668;23;20075;-80
2021/08/03 12:17:44;;;;;;;100.18;70.97;;;22.20;97.60;;;;;;6186115;23;20020;-81
2021/08/03 12:20:36;;;;;;;155.85;90.75;;;22.90;97.00;;;;;;6195532;23;20021;-79
2021/08/03 12:23:36;;;;;;;210.55;179.30;;;23.00;97.50;;;;;;6185226;23;20019;-80
2021/08/03 12:26:07;;;;;;;148.73;97.38;;;23.10;96.70;;;;;;6186147;23;20020;-79
2021/08/03 12:28:34;;;;;;;114.32;73.18;;;22.70;97.30;;;;;;6186529;23;20017;-81
2021/08/03 12:31:20;;;;;;;163.80;104.32;;;22.70;97.50;;;;;;6213388;23;20103;-81
2021/08/03 12:33:49;;;;;;;153.40;101.07;;;22.50;97.10;;;;;;6216634;23;20019;-80
2021/08/03 12:36:15;;;;;;;102.20;66.07;;;22.50;97.40;;;;;;6186429;23;20116;-78
2021/08/03 12:39:01;;;;;;;250.93;170.77;;;22.00;97.20;;;;;;6222068;23;20361;-80
2021/08/03 12:41:30;;;;;;;224.93;141.77;;;22.00;96.50;;;;;;6186315;23;20058;-78